createdAt,value
2023-02-11T00:01:32.168Z,23.40
2023-02-11T00:04:00.783Z,21.60
2023-02-11T00:06:31.041Z,22.10
2023-02-11T00:08:58.511Z,22.60
2023-02-11T00:11:30.642Z,23.80
2023-02-11T00:14:03.123Z,23.00
2023-02-11T00:16:32.323Z,23.00
2023-02-11T00:19:01.407Z,22.30
2023-02-11T00:21:29.717Z,22.00
2023-02-11T00:23:59.702Z,21.20
2023-02-11T00:26:31.470Z,22.10
2023-02-11T00:29:00.866Z,21.70
2023-02-11T00:31:29.229Z,22.70
2023-02-11T00:33:56.947Z,22.70
2023-02-11T00:36:27.472Z,22.90
2023-02-11T00:38:56.691Z,21.70
2023-02-11T00:41:24.782Z,21.20
2023-02-11T00:43:53.270Z,20.80
2023-02-11T00:46:21.798Z,22.60
2023-02-11T00:48:51.820Z,22.10
2023-02-11T00:51:19.359Z,24.60
2023-02-11T00:53:46.807Z,24.80
2023-02-11T00:56:14.214Z,23.50
2023-02-11T00:58:41.725Z,22.80
2023-02-11T01:01:09.227Z,22.00
2023-02-11T01:03:36.668Z,22.10
2023-02-11T01:06:05.770Z,21.90
2023-02-11T01:08:33.311Z,24.50
2023-02-11T01:11:05.632Z,20.90
2023-02-11T01:13:37.386Z,21.80
2023-02-11T01:16:07.988Z,23.00
2023-02-11T01:18:36.405Z,21.70
2023-02-11T01:21:04.813Z,22.90
2023-02-11T01:23:32.412Z,22.50
2023-02-11T01:25:59.857Z,22.20
2023-02-11T01:28:29.665Z,22.30
2023-02-11T01:30:57.369Z,21.30
2023-02-11T01:33:24.912Z,23.00
2023-02-11T01:35:53.290Z,21.20
2023-02-11T01:38:25.513Z,23.30
2023-02-11T01:40:59.433Z,23.90
2023-02-11T01:43:28.985Z,21.90
2023-02-11T01:46:21.953Z,24.00
2023-02-11T01:48:56.329Z,24.00
2023-02-11T01:51:40.685Z,23.50
2023-02-11T01:54:30.612Z,23.20
2023-02-11T01:57:18.540Z,23.20
2023-02-11T02:00:16.301Z,22.30
2023-02-11T02:03:07.930Z,22.80
2023-02-11T02:08:31.014Z,23.90
2023-02-11T02:11:00.936Z,23.20
2023-02-11T02:13:33.882Z,23.60
2023-02-11T02:16:09.924Z,23.60
2023-02-11T02:19:11.444Z,24.40
2023-02-11T02:21:56.955Z,23.50
2023-02-11T02:25:10.970Z,22.30
2023-02-11T02:28:00.216Z,22.40
2023-02-11T02:30:48.439Z,22.00
2023-02-11T02:33:39.124Z,21.60
2023-02-11T02:36:20.095Z,22.90
2023-02-11T02:39:07.816Z,23.40
2023-02-11T02:41:38.373Z,22.80
2023-02-11T02:44:07.584Z,23.60
2023-02-11T02:46:36.536Z,23.60
2023-02-11T02:49:09.984Z,24.00
2023-02-11T02:52:15.336Z,22.80
2023-02-11T02:55:10.610Z,22.80
2023-02-11T02:58:23.769Z,21.70
2023-02-11T03:01:27.081Z,22.30
2023-02-11T03:04:13.768Z,23.40
2023-02-11T03:07:42.849Z,22.20
2023-02-11T03:10:37.339Z,22.80
2023-02-11T03:13:06.157Z,22.30
2023-02-11T03:15:40.034Z,24.20
2023-02-11T03:18:12.649Z,23.40
2023-02-11T03:20:45.147Z,22.60
2023-02-11T03:23:23.250Z,23.00
2023-02-11T03:25:58.807Z,24.40
2023-02-11T03:28:57.548Z,24.10
2023-02-11T03:31:40.245Z,23.10
2023-02-11T03:34:16.023Z,23.20
2023-02-11T03:36:50.984Z,24.10
2023-02-11T03:39:24.143Z,24.40
2023-02-11T03:41:55.763Z,22.80
2023-02-11T03:44:28.768Z,23.40
2023-02-11T03:46:56.535Z,22.90
2023-02-11T03:49:26.659Z,22.60
2023-02-11T03:51:56.626Z,24.20
2023-02-11T03:54:30.788Z,23.80
2023-02-11T03:57:01.171Z,23.80
2023-02-11T03:59:28.963Z,23.10
2023-02-11T04:01:57.722Z,22.90
2023-02-11T04:04:25.347Z,23.00
2023-02-11T04:06:52.751Z,23.10
2023-02-11T04:09:20.223Z,23.50
2023-02-11T04:11:47.609Z,22.90
2023-02-11T04:14:14.932Z,22.60
2023-02-11T04:16:42.573Z,21.40
2023-02-11T04:19:10.138Z,23.30
2023-02-11T04:21:37.487Z,22.60
2023-02-11T04:24:05.507Z,23.00
2023-02-11T04:26:33.321Z,23.10
2023-02-11T04:29:00.709Z,23.40
2023-02-11T04:31:28.143Z,22.30
2023-02-11T04:33:56.940Z,21.20
2023-02-11T04:36:24.506Z,22.70
2023-02-11T04:38:51.836Z,22.40
2023-02-11T04:41:19.262Z,22.00
2023-02-11T04:43:46.640Z,22.60
2023-02-11T04:46:14.107Z,23.10
2023-02-11T04:48:41.617Z,23.00
2023-02-11T04:51:09.150Z,23.40
2023-02-11T04:53:36.678Z,22.90
2023-02-11T04:56:04.755Z,23.00
2023-02-11T04:58:32.195Z,24.10
2023-02-11T05:01:11.710Z,23.70
2023-02-11T05:03:40.323Z,24.60
2023-02-11T05:06:09.314Z,23.90
2023-02-11T05:08:36.730Z,24.90
2023-02-11T05:11:04.489Z,25.60
2023-02-11T05:13:32.473Z,25.60
2023-02-11T05:15:59.941Z,23.60
2023-02-11T05:18:27.364Z,22.70
2023-02-11T05:20:54.810Z,22.60
2023-02-11T05:23:22.245Z,22.90
2023-02-11T05:25:49.963Z,23.40
2023-02-11T05:28:18.687Z,22.50
2023-02-11T05:30:46.187Z,23.80
2023-02-11T05:33:13.712Z,24.60
2023-02-11T05:35:41.175Z,23.50
2023-02-11T05:38:08.644Z,23.60
2023-02-11T05:40:35.996Z,23.60
2023-02-11T05:43:03.453Z,23.80
2023-02-11T05:45:30.923Z,23.10
2023-02-11T05:47:58.346Z,23.50
2023-02-11T05:50:26.224Z,22.10
2023-02-11T05:52:53.605Z,23.90
2023-02-11T05:55:21.322Z,24.20
2023-02-11T05:57:48.733Z,24.40
2023-02-11T06:00:16.865Z,23.10
2023-02-11T06:02:44.384Z,23.50
2023-02-11T06:05:11.832Z,23.60
2023-02-11T06:07:39.249Z,23.40
2023-02-11T06:10:07.790Z,23.60
2023-02-11T06:12:37.767Z,23.10
2023-02-11T06:15:06.892Z,23.20
2023-02-11T06:17:34.323Z,22.60
2023-02-11T06:20:02.898Z,23.20
2023-02-11T06:22:30.687Z,23.50
2023-02-11T06:25:01.792Z,25.30
2023-02-11T06:27:30.136Z,23.70
2023-02-11T06:29:57.730Z,22.80
2023-02-11T06:35:15.027Z,23.60
2023-02-11T06:37:43.331Z,23.90
2023-02-11T06:40:12.268Z,24.40
2023-02-11T06:42:39.805Z,23.80
2023-02-11T06:45:09.625Z,23.00
2023-02-11T06:47:37.877Z,24.30
2023-02-11T06:50:08.044Z,22.50
2023-02-11T06:52:35.506Z,23.20
2023-02-11T06:55:02.971Z,23.40
2023-02-11T06:57:31.093Z,23.50
2023-02-11T06:59:58.598Z,25.10
2023-02-11T07:02:26.067Z,24.20
2023-02-11T07:04:53.487Z,24.60
2023-02-11T07:07:20.893Z,24.60
2023-02-11T07:09:48.356Z,23.20
2023-02-11T07:12:15.750Z,24.40
2023-02-11T07:14:43.322Z,23.60
2023-02-11T07:17:10.826Z,24.20
2023-02-11T07:19:38.559Z,23.50
2023-02-11T07:22:05.943Z,24.00
2023-02-11T07:24:33.363Z,25.10
2023-02-11T07:27:00.909Z,24.30
2023-02-11T07:29:28.264Z,24.70
2023-02-11T07:31:55.781Z,23.90
2023-02-11T07:34:23.226Z,25.20
2023-02-11T07:36:50.733Z,25.70
2023-02-11T07:39:18.163Z,25.00
2023-02-11T07:41:47.852Z,26.70
2023-02-11T07:44:15.734Z,24.20
2023-02-11T07:46:44.680Z,27.00
2023-02-11T07:49:12.867Z,25.20
2023-02-11T07:51:40.268Z,25.10
2023-02-11T07:54:07.860Z,24.60
2023-02-11T07:56:35.321Z,25.40
2023-02-11T07:59:03.740Z,25.90
2023-02-11T08:01:31.902Z,27.00
2023-02-11T08:04:01.604Z,25.70
2023-02-11T08:06:33.096Z,25.20
2023-02-11T08:11:35.848Z,25.60
2023-02-11T08:14:03.331Z,24.90
2023-02-11T08:16:37.418Z,23.30
2023-02-11T08:19:11.324Z,26.20
2023-02-11T08:21:40.044Z,26.60
2023-02-11T08:24:08.364Z,27.60
2023-02-11T08:26:36.271Z,26.00
2023-02-11T08:29:10.550Z,26.60
2023-02-11T08:31:42.245Z,25.70
2023-02-11T08:34:11.606Z,26.60
2023-02-11T08:36:41.025Z,25.60
2023-02-11T08:39:19.524Z,24.90
2023-02-11T08:41:53.853Z,26.60
2023-02-11T08:44:22.071Z,27.00
2023-02-11T08:46:50.802Z,27.50
2023-02-11T08:49:19.069Z,27.50
2023-02-11T08:51:47.154Z,26.20
2023-02-11T08:54:16.115Z,27.50
2023-02-11T08:56:44.503Z,26.90
2023-02-11T08:59:15.054Z,27.70
2023-02-11T09:01:44.138Z,27.10
2023-02-11T09:04:11.744Z,26.50
2023-02-11T09:06:39.733Z,27.90
2023-02-11T09:09:10.877Z,28.50
2023-02-11T09:11:38.244Z,27.00
2023-02-11T09:14:05.613Z,27.80
2023-02-11T09:16:36.376Z,28.30
2023-02-11T09:19:05.391Z,28.80
2023-02-11T09:21:33.225Z,27.70
2023-02-11T09:24:00.839Z,28.20
2023-02-11T09:26:32.114Z,28.80
2023-02-11T09:29:01.105Z,28.30
2023-02-11T09:31:30.791Z,29.00
2023-02-11T09:34:02.329Z,27.70
2023-02-11T09:39:02.146Z,28.80
2023-02-11T09:42:06.559Z,28.60
2023-02-11T09:44:37.513Z,27.90
2023-02-11T09:47:21.414Z,28.10
2023-02-11T09:49:55.024Z,27.70
2023-02-11T09:52:37.772Z,29.70
2023-02-11T09:55:19.515Z,28.40
2023-02-11T09:57:47.115Z,29.00
2023-02-11T10:00:25.363Z,28.30
2023-02-11T10:03:02.276Z,27.70
2023-02-11T10:06:19.973Z,28.90
2023-02-11T10:09:02.208Z,29.10
2023-02-11T10:11:57.823Z,28.70
2023-02-11T10:15:19.331Z,28.40
2023-02-11T10:18:07.699Z,27.30
2023-02-11T10:21:02.891Z,27.80
2023-02-11T10:23:39.715Z,28.90
2023-02-11T10:26:18.298Z,27.50
2023-02-11T10:28:53.172Z,27.90
2023-02-11T10:31:29.199Z,28.50
2023-02-11T10:34:10.756Z,28.10
2023-02-11T10:36:42.320Z,31.20
2023-02-11T10:39:23.873Z,30.40
2023-02-11T10:42:00.836Z,27.80
2023-02-11T10:44:33.446Z,29.80
2023-02-11T10:47:11.972Z,28.30
2023-02-11T10:49:42.820Z,29.10
2023-02-11T10:52:27.115Z,30.70
2023-02-11T10:55:10.155Z,29.40
2023-02-11T10:57:44.687Z,30.10
2023-02-11T11:00:18.414Z,29.90
2023-02-11T11:02:53.316Z,28.80
2023-02-11T11:05:33.448Z,29.90
2023-02-11T11:08:06.601Z,28.10
2023-02-11T11:10:43.742Z,29.90
2023-02-11T11:13:30.829Z,28.70
2023-02-11T11:16:13.433Z,28.00
2023-02-11T11:18:46.799Z,27.20
2023-02-11T11:21:27.261Z,26.60
2023-02-11T11:24:01.155Z,27.00
2023-02-11T11:26:41.790Z,24.70
2023-02-11T11:29:19.282Z,21.50
2023-02-11T11:31:55.233Z,20.20
2023-02-11T11:34:31.396Z,21.60
2023-02-11T11:37:02.170Z,20.20
2023-02-11T11:39:35.404Z,20.40
2023-02-11T11:42:29.127Z,19.80
2023-02-11T11:45:02.349Z,20.50
2023-02-11T11:47:36.642Z,19.00
2023-02-11T11:50:12.174Z,18.20
2023-02-11T11:53:07.866Z,18.80
2023-02-11T11:55:42.273Z,17.20
2023-02-11T11:58:16.752Z,14.70
2023-02-11T12:01:24.619Z,15.80
2023-02-11T12:04:05.771Z,16.40
2023-02-11T12:06:55.812Z,17.20
2023-02-11T12:09:37.081Z,16.00
2023-02-11T12:15:39.966Z,12.70
2023-02-11T12:18:39.445Z,15.40
2023-02-11T12:21:29.470Z,14.10
2023-02-11T12:24:54.335Z,12.70
2023-02-11T12:28:07.597Z,10.90
2023-02-11T12:30:59.111Z,10.80
2023-02-11T12:33:53.104Z,11.30
2023-02-11T12:36:56.108Z,12.30
2023-02-11T12:39:42.629Z,13.30
2023-02-11T12:42:40.596Z,13.40
2023-02-11T12:45:37.151Z,14.90
2023-02-11T12:48:52.090Z,12.20
2023-02-11T12:52:06.804Z,13.50
2023-02-11T12:54:52.661Z,13.20
2023-02-11T12:57:28.632Z,12.50
2023-02-11T13:00:08.024Z,12.20
2023-02-11T13:02:54.342Z,12.20
2023-02-11T13:05:49.655Z,11.10
2023-02-11T13:08:29.296Z,13.50
2023-02-11T13:11:40.103Z,13.00
2023-02-11T13:14:33.044Z,12.20
2023-02-11T13:17:00.685Z,9.00
2023-02-11T13:19:43.360Z,8.30
2023-02-11T13:22:22.830Z,8.60
2023-02-11T13:25:07.084Z,10.20
2023-02-11T13:27:59.941Z,9.80
2023-02-11T13:30:35.309Z,9.30
2023-02-11T13:33:07.045Z,9.50
2023-02-11T13:35:40.385Z,9.60
2023-02-11T13:38:21.761Z,9.40
2023-02-11T13:43:33.565Z,9.30
2023-02-11T13:46:07.408Z,9.30
2023-02-11T13:48:38.623Z,10.20
2023-02-11T13:51:10.317Z,9.10
2023-02-11T13:53:58.029Z,9.90
2023-02-11T13:56:34.651Z,9.40
2023-02-11T13:59:31.913Z,8.40
2023-02-11T14:02:17.462Z,8.80
2023-02-11T14:05:22.088Z,8.80
2023-02-11T14:08:26.225Z,8.80
2023-02-11T14:10:57.632Z,8.40
2023-02-11T14:13:33.713Z,8.80
2023-02-11T14:16:20.288Z,9.70
2023-02-11T14:18:55.686Z,9.00
2023-02-11T14:21:44.416Z,10.40
2023-02-11T14:24:12.974Z,8.80
2023-02-11T14:26:48.555Z,8.10
2023-02-11T14:30:02.587Z,8.00
2023-02-11T14:32:58.275Z,7.40
2023-02-11T14:35:45.707Z,7.40
2023-02-11T14:38:29.843Z,7.40
2023-02-11T14:41:16.676Z,7.50
2023-02-11T14:43:55.069Z,7.40
2023-02-11T14:46:25.076Z,7.60
2023-02-11T14:48:55.503Z,8.10
2023-02-11T14:51:36.151Z,10.80
2023-02-11T14:54:15.242Z,10.60
2023-02-11T14:56:44.652Z,10.10
2023-02-11T14:59:23.124Z,8.60
2023-02-11T15:01:56.731Z,7.80
2023-02-11T15:04:31.741Z,9.30
2023-02-11T15:07:06.355Z,9.60
2023-02-11T15:09:52.920Z,9.50
2023-02-11T15:12:29.381Z,8.70
2023-02-11T15:14:59.729Z,7.90
2023-02-11T15:17:30.761Z,8.10
2023-02-11T15:20:02.168Z,7.40
2023-02-11T15:22:33.553Z,7.70
2023-02-11T15:27:49.546Z,6.70
2023-02-11T15:30:24.982Z,6.70
2023-02-11T15:33:05.460Z,7.30
2023-02-11T15:35:38.017Z,7.20
2023-02-11T15:38:05.896Z,6.40
2023-02-11T15:40:36.494Z,6.60
2023-02-11T15:43:10.515Z,5.70
2023-02-11T15:45:40.515Z,7.00
2023-02-11T15:48:20.525Z,6.50
2023-02-11T15:50:58.762Z,6.10
2023-02-11T15:53:37.742Z,7.10
2023-02-11T15:56:20.558Z,7.40
2023-02-11T15:58:49.535Z,7.10
2023-02-11T16:01:17.362Z,7.00
2023-02-11T16:03:50.837Z,7.60
2023-02-11T16:06:37.698Z,7.70
2023-02-11T16:09:11.597Z,7.60
2023-02-11T16:11:48.303Z,8.00
2023-02-11T16:14:39.433Z,8.20
2023-02-11T16:17:12.745Z,7.90
2023-02-11T16:19:47.365Z,8.00
2023-02-11T16:22:25.201Z,8.60
2023-02-11T16:24:55.888Z,8.10
2023-02-11T16:27:38.406Z,8.60
2023-02-11T16:30:21.723Z,6.90
2023-02-11T16:32:49.108Z,7.50
2023-02-11T16:35:16.527Z,7.60
2023-02-11T16:37:43.946Z,8.60
2023-02-11T16:40:12.902Z,9.60
2023-02-11T16:42:40.676Z,9.80
2023-02-11T16:45:09.044Z,10.20
2023-02-11T16:47:40.951Z,9.80
2023-02-11T16:50:11.776Z,10.10
2023-02-11T16:52:39.171Z,10.60
2023-02-11T16:55:06.822Z,11.00
2023-02-11T16:57:34.268Z,9.70
2023-02-11T17:00:01.788Z,10.70
2023-02-11T17:02:34.243Z,10.70
2023-02-11T17:05:08.853Z,9.70
2023-02-11T17:07:36.275Z,10.00
2023-02-11T17:10:03.984Z,10.00
2023-02-11T17:12:31.429Z,10.00
2023-02-11T17:14:58.778Z,8.90
2023-02-11T17:17:26.236Z,8.30
2023-02-11T17:19:53.640Z,8.30
2023-02-11T17:22:21.120Z,8.40
2023-02-11T17:24:48.514Z,13.10
2023-02-11T17:27:16.182Z,9.80
2023-02-11T17:29:43.779Z,9.20
2023-02-11T17:32:11.289Z,8.00
2023-02-11T17:34:38.701Z,6.50
2023-02-11T17:37:09.347Z,6.80
2023-02-11T17:39:38.783Z,7.80
2023-02-11T17:42:07.368Z,7.80
2023-02-11T17:44:34.874Z,8.00
2023-02-11T17:47:02.247Z,7.90
2023-02-11T17:49:30.165Z,8.10
2023-02-11T17:51:57.654Z,8.10
2023-02-11T17:54:25.998Z,7.80
2023-02-11T17:56:57.816Z,9.00
2023-02-11T17:59:26.566Z,8.80
2023-02-11T18:01:54.066Z,8.50
2023-02-11T18:04:21.970Z,8.50
2023-02-11T18:06:50.380Z,8.60
2023-02-11T18:09:17.838Z,9.10
2023-02-11T18:11:45.702Z,8.70
2023-02-11T18:14:13.088Z,8.40
2023-02-11T18:16:43.081Z,7.80
2023-02-11T18:19:12.273Z,7.80
2023-02-11T18:21:43.142Z,7.20
2023-02-11T18:24:10.961Z,6.70
2023-02-11T18:26:38.448Z,6.80
2023-02-11T18:29:07.068Z,8.00
2023-02-11T18:31:37.865Z,7.80
2023-02-11T18:34:07.783Z,8.40
2023-02-11T18:36:35.945Z,9.00
2023-02-11T18:39:05.057Z,8.80
2023-02-11T18:41:32.719Z,13.00
2023-02-11T18:44:03.039Z,9.60
2023-02-11T18:46:31.388Z,8.60
2023-02-11T18:48:59.259Z,9.50
2023-02-11T18:51:26.971Z,9.80
2023-02-11T18:53:54.744Z,9.30
2023-02-11T18:56:24.624Z,9.90
2023-02-11T18:58:52.105Z,10.30
2023-02-11T19:01:24.413Z,10.50
2023-02-11T19:03:52.169Z,9.60
2023-02-11T19:06:26.269Z,9.20
2023-02-11T19:08:59.311Z,9.60
2023-02-11T19:11:47.030Z,11.90
2023-02-11T19:14:24.596Z,10.10
2023-02-11T19:16:55.913Z,11.00
2023-02-11T19:21:52.819Z,9.70
2023-02-11T19:24:22.018Z,9.60
2023-02-11T19:26:51.764Z,10.50
2023-02-11T19:29:19.783Z,11.70
2023-02-11T19:31:47.431Z,11.90
2023-02-11T19:34:17.680Z,10.20
2023-02-11T19:36:45.044Z,9.70
2023-02-11T19:39:12.998Z,9.90
2023-02-11T19:41:40.612Z,9.90
2023-02-11T19:44:08.448Z,10.70
2023-02-11T19:46:38.723Z,10.40
2023-02-11T19:49:07.171Z,9.20
2023-02-11T19:51:36.963Z,8.70
2023-02-11T19:54:04.829Z,6.20
2023-02-11T19:56:33.472Z,7.20
2023-02-11T19:59:02.771Z,7.60
2023-02-11T20:01:30.288Z,8.20
2023-02-11T20:03:57.811Z,9.60
2023-02-11T20:06:29.329Z,10.60
2023-02-11T20:09:00.328Z,10.10
2023-02-11T20:11:29.878Z,10.60
2023-02-11T20:13:58.388Z,8.20
2023-02-11T20:16:41.032Z,8.30
2023-02-11T20:19:18.794Z,7.20
2023-02-11T20:21:48.606Z,7.60
2023-02-11T20:24:17.977Z,8.10
2023-02-11T20:26:48.161Z,8.60
2023-02-11T20:29:17.864Z,7.90
2023-02-11T20:31:45.739Z,8.30
2023-02-11T20:34:13.472Z,8.40
2023-02-11T20:36:41.106Z,8.60
2023-02-11T20:39:10.946Z,7.90
2023-02-11T20:41:41.596Z,4.80
2023-02-11T20:44:10.659Z,5.70
2023-02-11T20:46:42.999Z,4.80
2023-02-11T20:49:13.521Z,5.00
2023-02-11T20:51:41.043Z,5.60
2023-02-11T20:54:17.785Z,5.30
2023-02-11T20:56:48.150Z,5.00
2023-02-11T20:59:17.600Z,5.70
2023-02-11T21:01:50.375Z,6.10
2023-02-11T21:04:22.122Z,6.50
2023-02-11T21:06:53.799Z,7.10
2023-02-11T21:09:25.247Z,6.40
2023-02-11T21:14:23.307Z,6.70
2023-02-11T21:16:52.426Z,6.50
2023-02-11T21:19:20.327Z,7.00
2023-02-11T21:21:47.931Z,7.20
2023-02-11T21:24:15.865Z,6.40
2023-02-11T21:26:43.382Z,6.30
2023-02-11T21:29:11.631Z,6.30
2023-02-11T21:31:39.465Z,6.50
2023-02-11T21:34:07.418Z,7.50
2023-02-11T21:36:35.262Z,6.60
2023-02-11T21:39:04.019Z,6.40
2023-02-11T21:41:32.034Z,5.90
2023-02-11T21:43:59.457Z,6.50
2023-02-11T21:46:27.740Z,6.00
2023-02-11T21:48:55.170Z,5.90
2023-02-11T21:51:25.805Z,6.20
2023-02-11T21:54:03.788Z,6.50
2023-02-11T21:56:33.403Z,7.80
2023-02-11T21:59:01.452Z,6.80
2023-02-11T22:01:35.271Z,6.70
2023-02-11T22:04:03.621Z,6.90
2023-02-11T22:06:34.545Z,7.40
2023-02-11T22:09:06.435Z,7.50
2023-02-11T22:11:34.397Z,8.10
2023-02-11T22:14:02.025Z,6.90
2023-02-11T22:16:30.361Z,7.90
2023-02-11T22:18:58.957Z,6.30
2023-02-11T22:21:27.860Z,6.50
2023-02-11T22:23:56.287Z,6.50
2023-02-11T22:26:26.651Z,7.80
2023-02-11T22:28:55.003Z,7.80
2023-02-11T22:31:29.958Z,7.30
2023-02-11T22:33:59.412Z,8.00
2023-02-11T22:36:34.654Z,7.70
2023-02-11T22:39:13.746Z,8.50
2023-02-11T22:41:43.449Z,8.20
2023-02-11T22:44:11.297Z,8.50
2023-02-11T22:46:39.064Z,8.50
2023-02-11T22:49:07.380Z,8.80
2023-02-11T22:51:34.873Z,8.70
2023-02-11T22:54:05.675Z,8.40
2023-02-11T22:56:35.133Z,7.80
2023-02-11T22:59:06.410Z,7.20
2023-02-11T23:01:34.419Z,7.30
2023-02-11T23:04:04.537Z,7.60
2023-02-11T23:06:32.138Z,7.00
2023-02-11T23:08:59.787Z,6.30
2023-02-11T23:11:30.521Z,6.00
2023-02-11T23:13:58.603Z,5.40
2023-02-11T23:16:33.461Z,7.10
2023-02-11T23:19:05.610Z,5.40
2023-02-11T23:21:37.127Z,5.60
2023-02-11T23:24:10.918Z,5.30
2023-02-11T23:26:41.203Z,5.70
2023-02-11T23:29:09.253Z,5.40
2023-02-11T23:31:40.388Z,7.40
2023-02-11T23:34:08.869Z,5.40
2023-02-11T23:36:36.728Z,5.40
2023-02-11T23:39:04.986Z,5.10
2023-02-11T23:41:32.401Z,5.40
2023-02-11T23:43:59.803Z,5.50
2023-02-11T23:46:27.896Z,6.00
2023-02-11T23:48:55.586Z,5.60
2023-02-11T23:51:24.195Z,5.70
2023-02-11T23:53:52.925Z,6.70
2023-02-11T23:56:27.648Z,6.70
2023-02-11T23:58:57.930Z,6.70
